sensor_id;sensor_type;location;lat;lon;timestamp;P1;durP1;ratioP1;P2;durP2;ratioP2
3211;SDS011;1618;47.056;15.472;2023-04-25T00:02:21;2.30;;;2.20;;
3211;SDS011;1618;47.056;15.472;2023-04-25T00:04:49;2.13;;;2.03;;
3211;SDS011;1618;47.056;15.472;2023-04-25T00:10:22;2.37;;;2.27;;
3211;SDS011;1618;47.056;15.472;2023-04-25T00:12:52;2.67;;;2.47;;
3211;SDS011;1618;47.056;15.472;2023-04-25T00:15:19;2.37;;;2.27;;
3211;SDS011;1618;47.056;15.472;2023-04-25T00:17:49;2.37;;;2.27;;
3211;SDS011;1618;47.056;15.472;2023-04-25T00:20:20;2.80;;;2.60;;
3211;SDS011;1618;47.056;15.472;2023-04-25T00:22:50;2.07;;;2.07;;
3211;SDS011;1618;47.056;15.472;2023-04-25T00:25:21;2.13;;;2.03;;
3211;SDS011;1618;47.056;15.472;2023-04-25T00:27:55;2.67;;;2.47;;
3211;SDS011;1618;47.056;15.472;2023-04-25T00:30:24;2.30;;;2.20;;
3211;SDS011;1618;47.056;15.472;2023-04-25T00:32:52;2.33;;;2.20;;
3211;SDS011;1618;47.056;15.472;2023-04-25T00:35:22;2.30;;;2.20;;
3211;SDS011;1618;47.056;15.472;2023-04-25T00:37:49;2.63;;;2.50;;
3211;SDS011;1618;47.056;15.472;2023-04-25T00:40:19;2.87;;;2.67;;
3211;SDS011;1618;47.056;15.472;2023-04-25T00:42:47;2.30;;;2.20;;
3211;SDS011;1618;47.056;15.472;2023-04-25T00:45:16;2.67;;;2.47;;
3211;SDS011;1618;47.056;15.472;2023-04-25T00:47:46;3.03;;;2.83;;
3211;SDS011;1618;47.056;15.472;2023-04-25T00:50:15;2.87;;;2.67;;
3211;SDS011;1618;47.056;15.472;2023-04-25T00:52:45;2.50;;;2.30;;
3211;SDS011;1618;47.056;15.472;2023-04-25T00:55:12;2.93;;;2.83;;
3211;SDS011;1618;47.056;15.472;2023-04-25T00:57:40;2.50;;;2.40;;
3211;SDS011;1618;47.056;15.472;2023-04-25T01:00:09;2.70;;;2.60;;
3211;SDS011;1618;47.056;15.472;2023-04-25T01:02:43;2.40;;;2.30;;
3211;SDS011;1618;47.056;15.472;2023-04-25T01:05:11;2.57;;;2.47;;
3211;SDS011;1618;47.056;15.472;2023-04-25T01:07:39;2.70;;;2.60;;
3211;SDS011;1618;47.056;15.472;2023-04-25T01:10:07;2.70;;;2.60;;
3211;SDS011;1618;47.056;15.472;2023-04-25T01:12:36;2.70;;;2.60;;
3211;SDS011;1618;47.056;15.472;2023-04-25T01:15:04;2.70;;;2.60;;
3211;SDS011;1618;47.056;15.472;2023-04-25T01:17:39;3.30;;;3.10;;
3211;SDS011;1618;47.056;15.472;2023-04-25T01:20:10;2.80;;;2.70;;
3211;SDS011;1618;47.056;15.472;2023-04-25T01:22:39;2.83;;;2.73;;
3211;SDS011;1618;47.056;15.472;2023-04-25T01:25:07;2.63;;;2.53;;
3211;SDS011;1618;47.056;15.472;2023-04-25T01:27:37;2.60;;;2.50;;
3211;SDS011;1618;47.056;15.472;2023-04-25T01:30:05;2.77;;;2.67;;
3211;SDS011;1618;47.056;15.472;2023-04-25T01:32:33;2.77;;;2.57;;
3211;SDS011;1618;47.056;15.472;2023-04-25T01:35:03;3.23;;;3.03;;
3211;SDS011;1618;47.056;15.472;2023-04-25T01:37:35;2.63;;;2.53;;
3211;SDS011;1618;47.056;15.472;2023-04-25T01:40:06;3.30;;;3.10;;
3211;SDS011;1618;47.056;15.472;2023-04-25T01:42:33;2.70;;;2.60;;
3211;SDS011;1618;47.056;15.472;2023-04-25T01:45:04;2.43;;;2.33;;
3211;SDS011;1618;47.056;15.472;2023-04-25T01:47:34;3.17;;;2.97;;
3211;SDS011;1618;47.056;15.472;2023-04-25T01:50:07;2.60;;;2.50;;
3211;SDS011;1618;47.056;15.472;2023-04-25T01:52:34;2.67;;;2.53;;
3211;SDS011;1618;47.056;15.472;2023-04-25T01:55:05;2.83;;;2.73;;
3211;SDS011;1618;47.056;15.472;2023-04-25T01:57:32;2.40;;;2.30;;
3211;SDS011;1618;47.056;15.472;2023-04-25T02:00:03;2.80;;;2.70;;
3211;SDS011;1618;47.056;15.472;2023-04-25T02:02:32;2.80;;;2.60;;
3211;SDS011;1618;47.056;15.472;2023-04-25T02:05:01;2.33;;;2.30;;
3211;SDS011;1618;47.056;15.472;2023-04-25T02:07:28;2.83;;;2.73;;
3211;SDS011;1618;47.056;15.472;2023-04-25T02:10:01;2.40;;;2.30;;
3211;SDS011;1618;47.056;15.472;2023-04-25T02:12:35;2.60;;;2.50;;
3211;SDS011;1618;47.056;15.472;2023-04-25T02:15:04;2.30;;;2.30;;
3211;SDS011;1618;47.056;15.472;2023-04-25T02:17:31;2.97;;;2.87;;
3211;SDS011;1618;47.056;15.472;2023-04-25T02:20:00;2.60;;;2.50;;
3211;SDS011;1618;47.056;15.472;2023-04-25T02:22:28;2.63;;;2.50;;
3211;SDS011;1618;47.056;15.472;2023-04-25T02:24:57;2.77;;;2.67;;
3211;SDS011;1618;47.056;15.472;2023-04-25T02:27:29;2.70;;;2.60;;
3211;SDS011;1618;47.056;15.472;2023-04-25T02:30:00;3.23;;;3.03;;
3211;SDS011;1618;47.056;15.472;2023-04-25T02:32:28;3.13;;;2.97;;
3211;SDS011;1618;47.056;15.472;2023-04-25T02:34:56;3.07;;;2.87;;
3211;SDS011;1618;47.056;15.472;2023-04-25T02:37:31;2.40;;;2.30;;
3211;SDS011;1618;47.056;15.472;2023-04-25T02:40:01;2.87;;;2.67;;
3211;SDS011;1618;47.056;15.472;2023-04-25T02:42:29;2.60;;;2.50;;
3211;SDS011;1618;47.056;15.472;2023-04-25T02:44:57;2.50;;;2.40;;
3211;SDS011;1618;47.056;15.472;2023-04-25T02:47:27;3.00;;;2.80;;
3211;SDS011;1618;47.056;15.472;2023-04-25T02:49:55;2.87;;;2.67;;
3211;SDS011;1618;47.056;15.472;2023-04-25T02:52:22;2.80;;;2.70;;
3211;SDS011;1618;47.056;15.472;2023-04-25T02:54:50;4.47;;;2.60;;
3211;SDS011;1618;47.056;15.472;2023-04-25T02:57:18;3.03;;;2.93;;
3211;SDS011;1618;47.056;15.472;2023-04-25T02:59:52;2.97;;;2.87;;
3211;SDS011;1618;47.056;15.472;2023-04-25T03:02:20;2.60;;;2.50;;
3211;SDS011;1618;47.056;15.472;2023-04-25T03:04:53;2.70;;;2.60;;
3211;SDS011;1618;47.056;15.472;2023-04-25T03:07:22;2.80;;;2.70;;
3211;SDS011;1618;47.056;15.472;2023-04-25T03:09:50;2.60;;;2.50;;
3211;SDS011;1618;47.056;15.472;2023-04-25T03:12:17;2.57;;;2.47;;
3211;SDS011;1618;47.056;15.472;2023-04-25T03:14:44;3.23;;;3.13;;
3211;SDS011;1618;47.056;15.472;2023-04-25T03:17:18;2.90;;;2.80;;
3211;SDS011;1618;47.056;15.472;2023-04-25T03:19:46;3.40;;;3.20;;
3211;SDS011;1618;47.056;15.472;2023-04-25T03:22:19;3.03;;;2.93;;
3211;SDS011;1618;47.056;15.472;2023-04-25T03:24:49;2.80;;;2.70;;
3211;SDS011;1618;47.056;15.472;2023-04-25T03:27:18;3.20;;;3.00;;
3211;SDS011;1618;47.056;15.472;2023-04-25T03:29:46;2.70;;;2.60;;
3211;SDS011;1618;47.056;15.472;2023-04-25T03:32:14;2.50;;;2.40;;
3211;SDS011;1618;47.056;15.472;2023-04-25T03:34:46;2.80;;;2.70;;
3211;SDS011;1618;47.056;15.472;2023-04-25T03:37:14;2.43;;;2.30;;
3211;SDS011;1618;47.056;15.472;2023-04-25T03:39:43;2.30;;;2.20;;
3211;SDS011;1618;47.056;15.472;2023-04-25T03:42:11;2.30;;;2.20;;
3211;SDS011;1618;47.056;15.472;2023-04-25T03:44:38;2.00;;;1.90;;
3211;SDS011;1618;47.056;15.472;2023-04-25T03:47:07;2.53;;;2.37;;
3211;SDS011;1618;47.056;15.472;2023-04-25T03:49:37;2.90;;;2.70;;
3211;SDS011;1618;47.056;15.472;2023-04-25T03:52:06;2.70;;;2.60;;
3211;SDS011;1618;47.056;15.472;2023-04-25T03:54:35;2.40;;;2.30;;
3211;SDS011;1618;47.056;15.472;2023-04-25T03:57:05;2.60;;;2.50;;
3211;SDS011;1618;47.056;15.472;2023-04-25T03:59:33;2.30;;;2.20;;
3211;SDS011;1618;47.056;15.472;2023-04-25T04:02:01;2.20;;;2.10;;
3211;SDS011;1618;47.056;15.472;2023-04-25T04:04:29;2.13;;;2.03;;
3211;SDS011;1618;47.056;15.472;2023-04-25T04:06:57;2.63;;;2.43;;
3211;SDS011;1618;47.056;15.472;2023-04-25T04:09:25;2.10;;;2.00;;
3211;SDS011;1618;47.056;15.472;2023-04-25T04:11:53;2.20;;;2.10;;
3211;SDS011;1618;47.056;15.472;2023-04-25T04:14:23;2.27;;;2.17;;
3211;SDS011;1618;47.056;15.472;2023-04-25T04:16:50;2.10;;;2.00;;
3211;SDS011;1618;47.056;15.472;2023-04-25T04:19:24;3.10;;;2.90;;
3211;SDS011;1618;47.056;15.472;2023-04-25T04:21:52;2.20;;;2.10;;
3211;SDS011;1618;47.056;15.472;2023-04-25T04:24:21;2.30;;;2.20;;
3211;SDS011;1618;47.056;15.472;2023-04-25T04:26:49;2.40;;;2.30;;
3211;SDS011;1618;47.056;15.472;2023-04-25T04:29:18;2.87;;;2.77;;
3211;SDS011;1618;47.056;15.472;2023-04-25T04:31:48;2.40;;;2.30;;
3211;SDS011;1618;47.056;15.472;2023-04-25T04:34:17;2.27;;;2.17;;
3211;SDS011;1618;47.056;15.472;2023-04-25T04:36:50;2.00;;;1.90;;
3211;SDS011;1618;47.056;15.472;2023-04-25T04:39:20;2.33;;;2.23;;
3211;SDS011;1618;47.056;15.472;2023-04-25T04:41:49;2.30;;;2.10;;
3211;SDS011;1618;47.056;15.472;2023-04-25T04:44:17;2.97;;;2.77;;
3211;SDS011;1618;47.056;15.472;2023-04-25T04:46:45;2.53;;;2.43;;
3211;SDS011;1618;47.056;15.472;2023-04-25T04:49:17;2.37;;;2.27;;
3211;SDS011;1618;47.056;15.472;2023-04-25T04:51:44;3.03;;;2.77;;
3211;SDS011;1618;47.056;15.472;2023-04-25T04:54:13;2.30;;;2.20;;
3211;SDS011;1618;47.056;15.472;2023-04-25T04:56:41;2.40;;;2.30;;
3211;SDS011;1618;47.056;15.472;2023-04-25T04:59:11;2.40;;;2.30;;
3211;SDS011;1618;47.056;15.472;2023-04-25T05:01:40;2.87;;;2.67;;
3211;SDS011;1618;47.056;15.472;2023-04-25T05:04:07;2.20;;;2.10;;
3211;SDS011;1618;47.056;15.472;2023-04-25T05:06:37;2.70;;;2.50;;
3211;SDS011;1618;47.056;15.472;2023-04-25T05:09:05;3.20;;;3.00;;
3211;SDS011;1618;47.056;15.472;2023-04-25T05:11:34;3.03;;;2.83;;
3211;SDS011;1618;47.056;15.472;2023-04-25T05:14:01;2.70;;;2.50;;
3211;SDS011;1618;47.056;15.472;2023-04-25T05:16:32;2.50;;;2.37;;
3211;SDS011;1618;47.056;15.472;2023-04-25T05:19:00;2.40;;;2.20;;
3211;SDS011;1618;47.056;15.472;2023-04-25T05:21:30;1.87;;;1.83;;
3211;SDS011;1618;47.056;15.472;2023-04-25T05:24:04;2.90;;;2.70;;
3211;SDS011;1618;47.056;15.472;2023-04-25T05:26:31;2.20;;;2.10;;
3211;SDS011;1618;47.056;15.472;2023-04-25T05:28:59;3.07;;;2.33;;
3211;SDS011;1618;47.056;15.472;2023-04-25T05:31:26;2.07;;;1.97;;
3211;SDS011;1618;47.056;15.472;2023-04-25T05:33:55;2.73;;;2.63;;
3211;SDS011;1618;47.056;15.472;2023-04-25T05:36:24;2.80;;;2.60;;
3211;SDS011;1618;47.056;15.472;2023-04-25T05:38:52;2.20;;;2.10;;
3211;SDS011;1618;47.056;15.472;2023-04-25T05:41:22;2.47;;;2.37;;
3211;SDS011;1618;47.056;15.472;2023-04-25T05:43:49;2.80;;;2.63;;
3211;SDS011;1618;47.056;15.472;2023-04-25T05:46:17;3.03;;;2.93;;
3211;SDS011;1618;47.056;15.472;2023-04-25T05:48:47;2.73;;;2.53;;
3211;SDS011;1618;47.056;15.472;2023-04-25T05:51:16;2.60;;;2.40;;
3211;SDS011;1618;47.056;15.472;2023-04-25T05:53:46;3.53;;;3.30;;
3211;SDS011;1618;47.056;15.472;2023-04-25T05:56:22;3.30;;;3.10;;
3211;SDS011;1618;47.056;15.472;2023-04-25T05:58:55;3.90;;;3.70;;
3211;SDS011;1618;47.056;15.472;2023-04-25T06:01:22;3.97;;;3.73;;
3211;SDS011;1618;47.056;15.472;2023-04-25T06:03:51;3.40;;;3.30;;
3211;SDS011;1618;47.056;15.472;2023-04-25T06:06:25;4.00;;;3.80;;
3211;SDS011;1618;47.056;15.472;2023-04-25T06:08:53;3.40;;;3.20;;
3211;SDS011;1618;47.056;15.472;2023-04-25T06:11:22;3.73;;;3.43;;
3211;SDS011;1618;47.056;15.472;2023-04-25T06:13:54;3.70;;;3.50;;
3211;SDS011;1618;47.056;15.472;2023-04-25T06:16:21;4.20;;;3.90;;
3211;SDS011;1618;47.056;15.472;2023-04-25T06:18:51;4.43;;;4.13;;
3211;SDS011;1618;47.056;15.472;2023-04-25T06:21:19;4.13;;;3.83;;
3211;SDS011;1618;47.056;15.472;2023-04-25T06:23:48;4.17;;;3.83;;
3211;SDS011;1618;47.056;15.472;2023-04-25T06:26:19;3.60;;;3.50;;
3211;SDS011;1618;47.056;15.472;2023-04-25T06:28:47;10.87;;;2.80;;
3211;SDS011;1618;47.056;15.472;2023-04-25T06:31:15;3.60;;;3.40;;
3211;SDS011;1618;47.056;15.472;2023-04-25T06:33:48;3.50;;;3.30;;
3211;SDS011;1618;47.056;15.472;2023-04-25T06:36:16;3.40;;;3.20;;
3211;SDS011;1618;47.056;15.472;2023-04-25T06:38:45;3.97;;;3.57;;
3211;SDS011;1618;47.056;15.472;2023-04-25T06:41:12;3.50;;;3.30;;
3211;SDS011;1618;47.056;15.472;2023-04-25T06:43:43;3.40;;;3.20;;
3211;SDS011;1618;47.056;15.472;2023-04-25T06:46:14;4.50;;;4.20;;
3211;SDS011;1618;47.056;15.472;2023-04-25T06:48:41;3.63;;;3.43;;
3211;SDS011;1618;47.056;15.472;2023-04-25T06:51:08;4.77;;;4.40;;
3211;SDS011;1618;47.056;15.472;2023-04-25T06:53:41;5.17;;;4.77;;
3211;SDS011;1618;47.056;15.472;2023-04-25T06:56:08;3.87;;;3.67;;
3211;SDS011;1618;47.056;15.472;2023-04-25T06:58:36;5.10;;;4.70;;
3211;SDS011;1618;47.056;15.472;2023-04-25T07:01:05;3.80;;;3.60;;
3211;SDS011;1618;47.056;15.472;2023-04-25T07:03:34;3.70;;;3.50;;
3211;SDS011;1618;47.056;15.472;2023-04-25T07:06:03;4.03;;;3.73;;
3211;SDS011;1618;47.056;15.472;2023-04-25T07:08:31;4.50;;;4.20;;
3211;SDS011;1618;47.056;15.472;2023-04-25T07:11:01;5.00;;;4.70;;
3211;SDS011;1618;47.056;15.472;2023-04-25T07:13:30;5.40;;;5.10;;
3211;SDS011;1618;47.056;15.472;2023-04-25T07:15:58;5.93;;;5.73;;
3211;SDS011;1618;47.056;15.472;2023-04-25T07:18:26;6.93;;;6.60;;
3211;SDS011;1618;47.056;15.472;2023-04-25T07:21:03;8.93;;;8.53;;
3211;SDS011;1618;47.056;15.472;2023-04-25T07:23:33;11.10;;;10.60;;
3211;SDS011;1618;47.056;15.472;2023-04-25T07:26:00;12.90;;;12.20;;
3211;SDS011;1618;47.056;15.472;2023-04-25T07:28:28;12.37;;;11.77;;
3211;SDS011;1618;47.056;15.472;2023-04-25T07:30:56;14.07;;;13.27;;
3211;SDS011;1618;47.056;15.472;2023-04-25T07:33:25;14.20;;;13.20;;
3211;SDS011;1618;47.056;15.472;2023-04-25T07:35:54;12.23;;;11.63;;
3211;SDS011;1618;47.056;15.472;2023-04-25T07:38:25;12.10;;;11.50;;
3211;SDS011;1618;47.056;15.472;2023-04-25T07:40:52;16.00;;;15.20;;
3211;SDS011;1618;47.056;15.472;2023-04-25T07:43:23;19.37;;;18.37;;
3211;SDS011;1618;47.056;15.472;2023-04-25T07:45:53;20.20;;;19.07;;
3211;SDS011;1618;47.056;15.472;2023-04-25T08:12:37;29.67;;;27.30;;
3211;SDS011;1618;47.056;15.472;2023-04-25T08:15:07;29.23;;;26.93;;
3211;SDS011;1618;47.056;15.472;2023-04-25T08:17:35;31.17;;;28.10;;
3211;SDS011;1618;47.056;15.472;2023-04-25T08:20:02;27.03;;;24.83;;
3211;SDS011;1618;47.056;15.472;2023-04-25T08:22:32;29.03;;;26.63;;
3211;SDS011;1618;47.056;15.472;2023-04-25T08:25:03;27.90;;;25.50;;
3211;SDS011;1618;47.056;15.472;2023-04-25T08:27:32;28.43;;;26.00;;
3211;SDS011;1618;47.056;15.472;2023-04-25T08:30:01;28.60;;;26.10;;
3211;SDS011;1618;47.056;15.472;2023-04-25T08:32:28;28.50;;;26.00;;
3211;SDS011;1618;47.056;15.472;2023-04-25T08:34:56;28.57;;;26.07;;
3211;SDS011;1618;47.056;15.472;2023-04-25T08:37:24;28.50;;;26.00;;
3211;SDS011;1618;47.056;15.472;2023-04-25T08:39:52;28.50;;;26.00;;
3211;SDS011;1618;47.056;15.472;2023-04-25T08:42:23;28.50;;;26.00;;
3211;SDS011;1618;47.056;15.472;2023-04-25T08:44:50;29.27;;;26.67;;
3211;SDS011;1618;47.056;15.472;2023-04-25T08:47:23;29.00;;;26.40;;
3211;SDS011;1618;47.056;15.472;2023-04-25T08:49:51;30.00;;;27.40;;
3211;SDS011;1618;47.056;15.472;2023-04-25T08:52:22;28.93;;;26.33;;
3211;SDS011;1618;47.056;15.472;2023-04-25T08:54:50;29.20;;;26.60;;
3211;SDS011;1618;47.056;15.472;2023-04-25T08:57:18;28.77;;;26.17;;
3211;SDS011;1618;47.056;15.472;2023-04-25T08:59:45;29.00;;;26.40;;
3211;SDS011;1618;47.056;15.472;2023-04-25T09:02:14;28.67;;;26.07;;
3211;SDS011;1618;47.056;15.472;2023-04-25T09:04:44;28.93;;;26.43;;
3211;SDS011;1618;47.056;15.472;2023-04-25T09:07:11;29.40;;;26.80;;
3211;SDS011;1618;47.056;15.472;2023-04-25T09:09:40;30.27;;;27.57;;
3211;SDS011;1618;47.056;15.472;2023-04-25T09:12:08;29.50;;;26.90;;
3211;SDS011;1618;47.056;15.472;2023-04-25T09:14:36;30.00;;;27.40;;
3211;SDS011;1618;47.056;15.472;2023-04-25T09:17:03;30.33;;;27.73;;
3211;SDS011;1618;47.056;15.472;2023-04-25T09:19:33;29.87;;;27.20;;
3211;SDS011;1618;47.056;15.472;2023-04-25T09:22:02;30.87;;;28.07;;
3211;SDS011;1618;47.056;15.472;2023-04-25T09:24:34;30.60;;;27.90;;
3211;SDS011;1618;47.056;15.472;2023-04-25T09:27:03;30.20;;;27.60;;
3211;SDS011;1618;47.056;15.472;2023-04-25T09:29:30;29.83;;;27.13;;
3211;SDS011;1618;47.056;15.472;2023-04-25T09:32:11;29.80;;;27.10;;
3211;SDS011;1618;47.056;15.472;2023-04-25T09:34:39;29.90;;;27.20;;
3211;SDS011;1618;47.056;15.472;2023-04-25T09:37:09;30.53;;;27.73;;
3211;SDS011;1618;47.056;15.472;2023-04-25T09:39:37;29.43;;;26.83;;
3211;SDS011;1618;47.056;15.472;2023-04-25T09:42:05;29.53;;;26.90;;
3211;SDS011;1618;47.056;15.472;2023-04-25T09:44:33;30.20;;;27.50;;
3211;SDS011;1618;47.056;15.472;2023-04-25T09:47:00;29.60;;;26.90;;
3211;SDS011;1618;47.056;15.472;2023-04-25T09:49:28;28.73;;;26.13;;
3211;SDS011;1618;47.056;15.472;2023-04-25T09:51:55;30.20;;;27.50;;
3211;SDS011;1618;47.056;15.472;2023-04-25T09:54:24;32.40;;;29.80;;
3211;SDS011;1618;47.056;15.472;2023-04-25T09:56:53;29.50;;;27.00;;
3211;SDS011;1618;47.056;15.472;2023-04-25T09:59:21;29.73;;;27.13;;
3211;SDS011;1618;47.056;15.472;2023-04-25T10:01:49;30.00;;;27.40;;
3211;SDS011;1618;47.056;15.472;2023-04-25T10:04:18;30.53;;;27.93;;
3211;SDS011;1618;47.056;15.472;2023-04-25T10:17:33;30.33;;;27.63;;
3211;SDS011;1618;47.056;15.472;2023-04-25T10:20:01;29.67;;;26.97;;
3211;SDS011;1618;47.056;15.472;2023-04-25T10:22:31;29.90;;;27.20;;
3211;SDS011;1618;47.056;15.472;2023-04-25T10:25:00;30.20;;;27.40;;
3211;SDS011;1618;47.056;15.472;2023-04-25T10:27:35;31.33;;;28.43;;
3211;SDS011;1618;47.056;15.472;2023-04-25T10:30:06;32.00;;;29.10;;
3211;SDS011;1618;47.056;15.472;2023-04-25T10:32:37;31.60;;;28.80;;
3211;SDS011;1618;47.056;15.472;2023-04-25T10:35:14;31.30;;;28.50;;
3211;SDS011;1618;47.056;15.472;2023-04-25T10:38:00;31.60;;;28.70;;
3211;SDS011;1618;47.056;15.472;2023-04-25T10:40:29;31.30;;;28.50;;
3211;SDS011;1618;47.056;15.472;2023-04-25T10:43:32;31.30;;;28.40;;
3211;SDS011;1618;47.056;15.472;2023-04-25T10:45:51;32.00;;;29.10;;
3211;SDS011;1618;47.056;15.472;2023-04-25T10:48:26;29.67;;;26.97;;
3211;SDS011;1618;47.056;15.472;2023-04-25T10:51:06;30.90;;;28.00;;
3211;SDS011;1618;47.056;15.472;2023-04-25T10:53:41;31.57;;;28.70;;
3211;SDS011;1618;47.056;15.472;2023-04-25T10:56:11;31.50;;;28.67;;
3211;SDS011;1618;47.056;15.472;2023-04-25T10:58:45;31.70;;;28.80;;
3211;SDS011;1618;47.056;15.472;2023-04-25T11:01:19;31.53;;;28.73;;
3211;SDS011;1618;47.056;15.472;2023-04-25T11:03:49;31.10;;;28.40;;
3211;SDS011;1618;47.056;15.472;2023-04-25T11:06:27;31.90;;;29.20;;
3211;SDS011;1618;47.056;15.472;2023-04-25T11:08:56;30.90;;;28.20;;
3211;SDS011;1618;47.056;15.472;2023-04-25T11:11:25;30.70;;;27.90;;
3211;SDS011;1618;47.056;15.472;2023-04-25T11:13:59;31.13;;;28.23;;
3211;SDS011;1618;47.056;15.472;2023-04-25T11:16:29;31.00;;;28.20;;
3211;SDS011;1618;47.056;15.472;2023-04-25T11:19:00;30.30;;;27.50;;
3211;SDS011;1618;47.056;15.472;2023-04-25T11:21:27;30.33;;;27.53;;
3211;SDS011;1618;47.056;15.472;2023-04-25T11:23:56;30.17;;;27.37;;
3211;SDS011;1618;47.056;15.472;2023-04-25T11:26:24;30.17;;;27.37;;
3211;SDS011;1618;47.056;15.472;2023-04-25T11:28:58;30.90;;;28.10;;
3211;SDS011;1618;47.056;15.472;2023-04-25T11:31:26;30.70;;;27.90;;
3211;SDS011;1618;47.056;15.472;2023-04-25T11:33:56;30.83;;;27.93;;
3211;SDS011;1618;47.056;15.472;2023-04-25T11:36:30;31.83;;;28.83;;
3211;SDS011;1618;47.056;15.472;2023-04-25T11:39:02;32.13;;;29.13;;
3211;SDS011;1618;47.056;15.472;2023-04-25T11:59:45;30.80;;;27.90;;
3211;SDS011;1618;47.056;15.472;2023-04-25T12:02:23;31.00;;;28.20;;
3211;SDS011;1618;47.056;15.472;2023-04-25T12:04:59;31.67;;;28.87;;
3211;SDS011;1618;47.056;15.472;2023-04-25T12:07:28;32.10;;;29.40;;
3211;SDS011;1618;47.056;15.472;2023-04-25T12:09:57;32.30;;;29.60;;
3211;SDS011;1618;47.056;15.472;2023-04-25T12:12:31;32.43;;;29.67;;
3211;SDS011;1618;47.056;15.472;2023-04-25T12:15:15;33.43;;;30.63;;
3211;SDS011;1618;47.056;15.472;2023-04-25T12:17:47;34.00;;;31.20;;
3211;SDS011;1618;47.056;15.472;2023-04-25T12:20:18;33.80;;;31.10;;
3211;SDS011;1618;47.056;15.472;2023-04-25T12:22:50;32.50;;;29.70;;
3211;SDS011;1618;47.056;15.472;2023-04-25T12:25:33;33.30;;;30.50;;
3211;SDS011;1618;47.056;15.472;2023-04-25T12:28:16;32.70;;;29.90;;
3211;SDS011;1618;47.056;15.472;2023-04-25T12:30:59;33.27;;;30.47;;
3211;SDS011;1618;47.056;15.472;2023-04-25T12:33:28;33.30;;;30.50;;
3211;SDS011;1618;47.056;15.472;2023-04-25T12:35:57;32.80;;;29.90;;
3211;SDS011;1618;47.056;15.472;2023-04-25T12:38:28;33.00;;;30.10;;
3211;SDS011;1618;47.056;15.472;2023-04-25T12:40:57;32.47;;;29.57;;
3211;SDS011;1618;47.056;15.472;2023-04-25T12:43:25;31.83;;;29.03;;
3211;SDS011;1618;47.056;15.472;2023-04-25T12:45:55;32.20;;;29.50;;
3211;SDS011;1618;47.056;15.472;2023-04-25T12:48:25;31.50;;;28.80;;
3211;SDS011;1618;47.056;15.472;2023-04-25T12:50:56;31.87;;;29.07;;
3211;SDS011;1618;47.056;15.472;2023-04-25T12:53:25;31.70;;;28.90;;
3211;SDS011;1618;47.056;15.472;2023-04-25T12:55:54;33.10;;;30.17;;
3211;SDS011;1618;47.056;15.472;2023-04-25T12:58:21;31.60;;;28.70;;
3211;SDS011;1618;47.056;15.472;2023-04-25T13:00:53;31.10;;;28.30;;
3211;SDS011;1618;47.056;15.472;2023-04-25T13:03:21;31.07;;;28.27;;
3211;SDS011;1618;47.056;15.472;2023-04-25T13:05:55;30.60;;;27.90;;
3211;SDS011;1618;47.056;15.472;2023-04-25T13:08:23;31.20;;;28.50;;
3211;SDS011;1618;47.056;15.472;2023-04-25T13:10:53;30.63;;;27.83;;
3211;SDS011;1618;47.056;15.472;2023-04-25T13:13:22;29.90;;;27.20;;
3211;SDS011;1618;47.056;15.472;2023-04-25T13:15:57;30.57;;;27.77;;
3211;SDS011;1618;47.056;15.472;2023-04-25T13:18:30;30.60;;;27.80;;
3211;SDS011;1618;47.056;15.472;2023-04-25T13:20:59;30.53;;;27.73;;
3211;SDS011;1618;47.056;15.472;2023-04-25T13:23:28;32.70;;;29.90;;
3211;SDS011;1618;47.056;15.472;2023-04-25T13:26:01;31.53;;;28.63;;
3211;SDS011;1618;47.056;15.472;2023-04-25T13:28:30;31.33;;;28.53;;
3211;SDS011;1618;47.056;15.472;2023-04-25T13:30:58;31.90;;;29.10;;
3211;SDS011;1618;47.056;15.472;2023-04-25T13:33:28;32.30;;;29.60;;
3211;SDS011;1618;47.056;15.472;2023-04-25T13:35:56;33.10;;;30.40;;
3211;SDS011;1618;47.056;15.472;2023-04-25T13:38:24;33.90;;;31.20;;
3211;SDS011;1618;47.056;15.472;2023-04-25T13:40:53;33.23;;;30.53;;
3211;SDS011;1618;47.056;15.472;2023-04-25T13:43:20;32.97;;;30.37;;
3211;SDS011;1618;47.056;15.472;2023-04-25T13:45:48;31.67;;;28.97;;
3211;SDS011;1618;47.056;15.472;2023-04-25T13:48:15;32.83;;;30.13;;
3211;SDS011;1618;47.056;15.472;2023-04-25T13:50:43;33.43;;;30.63;;
3211;SDS011;1618;47.056;15.472;2023-04-25T13:53:12;33.40;;;30.70;;
3211;SDS011;1618;47.056;15.472;2023-04-25T13:55:45;31.73;;;29.03;;
3211;SDS011;1618;47.056;15.472;2023-04-25T13:58:12;32.10;;;29.60;;
3211;SDS011;1618;47.056;15.472;2023-04-25T14:00:41;32.73;;;30.23;;
3211;SDS011;1618;47.056;15.472;2023-04-25T14:03:13;31.40;;;28.70;;
3211;SDS011;1618;47.056;15.472;2023-04-25T14:05:46;29.63;;;27.03;;
3211;SDS011;1618;47.056;15.472;2023-04-25T14:08:16;30.40;;;27.70;;
3211;SDS011;1618;47.056;15.472;2023-04-25T14:10:46;30.27;;;27.40;;
3211;SDS011;1618;47.056;15.472;2023-04-25T14:13:16;30.60;;;28.00;;
3211;SDS011;1618;47.056;15.472;2023-04-25T14:15:44;30.97;;;28.27;;
3211;SDS011;1618;47.056;15.472;2023-04-25T14:18:15;30.10;;;27.50;;
3211;SDS011;1618;47.056;15.472;2023-04-25T14:20:43;29.40;;;26.80;;
3211;SDS011;1618;47.056;15.472;2023-04-25T14:23:11;30.50;;;27.90;;
3211;SDS011;1618;47.056;15.472;2023-04-25T14:25:39;29.63;;;27.03;;
3211;SDS011;1618;47.056;15.472;2023-04-25T14:28:10;29.00;;;26.40;;
3211;SDS011;1618;47.056;15.472;2023-04-25T14:30:41;28.70;;;26.20;;
3211;SDS011;1618;47.056;15.472;2023-04-25T14:33:11;28.93;;;26.33;;
3211;SDS011;1618;47.056;15.472;2023-04-25T14:35:39;29.17;;;26.67;;
3211;SDS011;1618;47.056;15.472;2023-04-25T14:38:09;29.30;;;26.80;;
3211;SDS011;1618;47.056;15.472;2023-04-25T14:40:36;30.47;;;27.77;;
3211;SDS011;1618;47.056;15.472;2023-04-25T14:43:04;29.47;;;26.97;;
3211;SDS011;1618;47.056;15.472;2023-04-25T14:45:34;28.90;;;26.30;;
3211;SDS011;1618;47.056;15.472;2023-04-25T14:48:02;29.50;;;26.90;;
3211;SDS011;1618;47.056;15.472;2023-04-25T14:50:30;29.43;;;26.83;;
3211;SDS011;1618;47.056;15.472;2023-04-25T14:52:57;29.27;;;26.67;;
3211;SDS011;1618;47.056;15.472;2023-04-25T14:55:25;28.90;;;26.30;;
3211;SDS011;1618;47.056;15.472;2023-04-25T14:57:53;29.43;;;26.63;;
3211;SDS011;1618;47.056;15.472;2023-04-25T15:00:21;29.83;;;27.23;;
3211;SDS011;1618;47.056;15.472;2023-04-25T15:02:51;30.57;;;27.97;;
3211;SDS011;1618;47.056;15.472;2023-04-25T15:05:19;29.50;;;26.90;;
3211;SDS011;1618;47.056;15.472;2023-04-25T15:07:46;29.23;;;26.63;;
3211;SDS011;1618;47.056;15.472;2023-04-25T15:10:13;29.70;;;27.10;;
3211;SDS011;1618;47.056;15.472;2023-04-25T15:12:42;29.10;;;26.60;;
3211;SDS011;1618;47.056;15.472;2023-04-25T15:15:13;28.90;;;26.30;;
3211;SDS011;1618;47.056;15.472;2023-04-25T15:17:41;29.03;;;26.43;;
3211;SDS011;1618;47.056;15.472;2023-04-25T15:20:11;28.60;;;26.00;;
3211;SDS011;1618;47.056;15.472;2023-04-25T15:22:39;28.43;;;25.93;;
3211;SDS011;1618;47.056;15.472;2023-04-25T15:25:07;29.10;;;26.50;;
3211;SDS011;1618;47.056;15.472;2023-04-25T15:27:36;28.93;;;26.23;;
3211;SDS011;1618;47.056;15.472;2023-04-25T15:30:07;29.67;;;26.77;;
3211;SDS011;1618;47.056;15.472;2023-04-25T15:32:36;28.93;;;26.43;;
3211;SDS011;1618;47.056;15.472;2023-04-25T15:35:06;29.90;;;27.30;;
3211;SDS011;1618;47.056;15.472;2023-04-25T15:37:38;30.70;;;28.00;;
3211;SDS011;1618;47.056;15.472;2023-04-25T15:40:07;29.50;;;26.80;;
3211;SDS011;1618;47.056;15.472;2023-04-25T15:42:43;30.17;;;27.47;;
3211;SDS011;1618;47.056;15.472;2023-04-25T15:45:14;28.93;;;26.33;;
3211;SDS011;1618;47.056;15.472;2023-04-25T15:47:43;29.77;;;27.07;;
3211;SDS011;1618;47.056;15.472;2023-04-25T15:50:11;28.93;;;26.33;;
3211;SDS011;1618;47.056;15.472;2023-04-25T15:52:43;28.90;;;26.40;;
3211;SDS011;1618;47.056;15.472;2023-04-25T15:55:12;29.03;;;26.53;;
3211;SDS011;1618;47.056;15.472;2023-04-25T15:57:43;28.87;;;26.27;;
3211;SDS011;1618;47.056;15.472;2023-04-25T16:00:24;32.13;;;29.53;;